Time;durP1;ratioP1;P1;durP2;ratioP2;P2;SDS_P1;SDS_P2;PMS_P1;PMS_P2;Temp;Humidity;BMP_temperature;BMP_pressure;BME280_temperature;BME280_humidity;BME280_pressure;Samples;Min_cycle;Max_cycle;Signal;HPM_P1;HPM_P2
2023/08/06 00:00:26;;;;;;;2.13;1.60;;;19.40;69.20;;;;;;4900433;29;20033;-78
2023/08/06 00:02:52;;;;;;;1.98;1.77;;;19.40;69.20;;;;;;4900168;29;20135;-78
2023/08/06 00:05:18;;;;;;;2.17;1.85;;;19.40;69.30;;;;;;4885140;29;20032;-78
2023/08/06 00:07:45;;;;;;;2.17;1.70;;;19.40;69.30;;;;;;4900582;29;20032;-80
2023/08/06 00:10:11;;;;;;;1.75;1.50;;;19.40;69.30;;;;;;4901828;29;20508;-77
2023/08/06 00:12:37;;;;;;;1.95;1.63;;;19.40;69.30;;;;;;4884880;29;20045;-78
2023/08/06 00:15:03;;;;;;;3.33;1.90;;;19.40;69.30;;;;;;4884734;29;20071;-78
2023/08/06 00:17:28;;;;;;;2.08;1.85;;;19.40;69.30;;;;;;4902200;29;20083;-78
2023/08/06 00:19:54;;;;;;;2.42;1.92;;;19.40;69.20;;;;;;4916404;29;20048;-77
2023/08/06 00:22:20;;;;;;;2.70;2.10;;;19.40;69.30;;;;;;4900205;29;20553;-77
2023/08/06 00:24:45;;;;;;;3.10;2.08;;;19.40;69.30;;;;;;4900439;29;20033;-79
2023/08/06 00:27:11;;;;;;;2.17;1.80;;;19.40;69.30;;;;;;4884498;29;20116;-78
2023/08/06 00:29:37;;;;;;;2.45;2.10;;;19.40;69.30;;;;;;4916644;29;20112;-78
2023/08/06 00:32:03;;;;;;;3.33;1.88;;;19.40;69.30;;;;;;4915292;29;20076;-78
2023/08/06 00:34:29;;;;;;;3.13;1.98;;;19.40;69.30;;;;;;4900206;29;20112;-77
2023/08/06 00:36:54;;;;;;;2.38;1.80;;;19.40;69.40;;;;;;4899894;29;20486;-78
2023/08/06 00:39:20;;;;;;;3.00;2.30;;;19.40;69.10;;;;;;4884249;29;20092;-77
2023/08/06 00:41:46;;;;;;;3.03;2.13;;;19.30;69.30;;;;;;4900376;29;20124;-80
2023/08/06 00:44:12;;;;;;;2.22;1.98;;;19.30;69.30;;;;;;4899389;29;20040;-78
2023/08/06 00:46:39;;;;;;;2.65;2.15;;;19.40;69.40;;;;;;4884313;29;20036;-79
2023/08/06 00:49:05;;;;;;;2.13;1.88;;;19.30;69.40;;;;;;4884380;29;20039;-78
2023/08/06 00:51:32;;;;;;;2.55;2.00;;;19.30;69.40;;;;;;4899969;29;20389;-78
2023/08/06 00:53:58;;;;;;;2.50;2.10;;;19.30;69.50;;;;;;4901574;29;20048;-78
2023/08/06 00:56:25;;;;;;;3.05;2.30;;;19.30;69.50;;;;;;4899437;29;20041;-78
2023/08/06 00:58:52;;;;;;;2.58;2.13;;;19.30;69.50;;;;;;4899436;29;20057;-78
2023/08/06 01:01:17;;;;;;;2.90;2.20;;;19.30;69.50;;;;;;4899287;29;20053;-79
2023/08/06 01:03:43;;;;;;;3.22;2.20;;;19.30;69.50;;;;;;4883767;29;20564;-78
2023/08/06 01:06:09;;;;;;;3.50;2.47;;;19.30;69.50;;;;;;4915211;29;20099;-79
2023/08/06 01:08:56;;;;;;;3.50;2.45;;;19.30;69.50;;;;;;4884041;29;20351;-78
2023/08/06 01:11:55;;;;;;;3.28;2.47;;;19.30;69.60;;;;;;4899265;29;20072;-78
2023/08/06 01:14:32;;;;;;;3.42;2.25;;;19.20;69.60;;;;;;4900693;29;20033;-79
2023/08/06 01:16:59;;;;;;;3.65;2.58;;;19.30;69.60;;;;;;4900496;29;20031;-79
2023/08/06 01:19:25;;;;;;;3.17;2.33;;;19.20;69.50;;;;;;4914948;29;20033;-78
2023/08/06 01:21:50;;;;;;;3.35;2.45;;;19.20;69.60;;;;;;4914653;29;20549;-79
2023/08/06 01:24:16;;;;;;;3.00;2.35;;;19.20;69.60;;;;;;4899801;29;20044;-78
2023/08/06 01:26:50;;;;;;;2.50;2.05;;;19.20;69.60;;;;;;4899143;29;20052;-79
2023/08/06 01:29:23;;;;;;;3.08;2.33;;;19.20;69.70;;;;;;4915197;29;20040;-78
2023/08/06 01:31:52;;;;;;;2.65;2.30;;;19.20;69.70;;;;;;4898851;29;20040;-78
2023/08/06 01:34:22;;;;;;;3.00;2.25;;;19.20;69.70;;;;;;4899062;29;20033;-78
2023/08/06 01:36:49;;;;;;;3.22;2.10;;;19.20;69.70;;;;;;4914407;29;20039;-78
2023/08/06 01:39:14;;;;;;;2.60;2.13;;;19.20;69.70;;;;;;4914215;29;20531;-78
2023/08/06 01:41:40;;;;;;;2.58;2.28;;;19.20;69.70;;;;;;4883742;29;20119;-77
2023/08/06 01:44:06;;;;;;;3.17;2.30;;;19.20;69.70;;;;;;4898894;29;20041;-76
2023/08/06 01:46:31;;;;;;;2.50;2.03;;;19.20;69.70;;;;;;4898622;29;20025;-78
2023/08/06 01:48:57;;;;;;;2.58;2.15;;;19.20;70.40;;;;;;4883894;29;20032;-77
2023/08/06 01:51:23;;;;;;;2.78;2.20;;;19.20;69.80;;;;;;4898485;29;20040;-78
2023/08/06 01:53:49;;;;;;;3.28;2.28;;;19.20;69.80;;;;;;4883835;29;20433;-78
2023/08/06 01:56:14;;;;;;;2.75;2.10;;;19.20;69.80;;;;;;4897627;29;20538;-78
2023/08/06 01:58:40;;;;;;;2.38;2.08;;;19.20;69.80;;;;;;4882852;29;20071;-79
2023/08/06 02:01:06;;;;;;;3.28;2.20;;;19.20;69.80;;;;;;4883231;29;20378;-78
2023/08/06 02:03:31;;;;;;;3.55;2.30;;;19.10;69.80;;;;;;4898180;29;20577;-78
2023/08/06 02:05:57;;;;;;;3.13;2.15;;;19.20;69.90;;;;;;4898230;29;20040;-78
2023/08/06 02:08:23;;;;;;;3.40;2.20;;;19.10;69.90;;;;;;4882709;29;20037;-78
2023/08/06 02:10:49;;;;;;;2.90;2.35;;;19.10;69.80;;;;;;4898146;29;20067;-77
2023/08/06 02:13:14;;;;;;;2.83;2.42;;;19.10;69.80;;;;;;4898140;29;20040;-79
2023/08/06 02:15:44;;;;;;;4.03;2.80;;;19.10;69.80;;;;;;4898137;29;20029;-78
2023/08/06 02:18:10;;;;;;;3.22;2.45;;;19.10;69.90;;;;;;4897906;29;20067;-78
2023/08/06 02:20:36;;;;;;;3.00;2.30;;;19.10;69.90;;;;;;4898896;29;20494;-78
2023/08/06 02:23:02;;;;;;;3.45;2.55;;;19.10;69.90;;;;;;4914331;29;20041;-78
2023/08/06 02:25:28;;;;;;;3.00;2.33;;;19.10;69.90;;;;;;4899214;29;20037;-78
2023/08/06 02:27:53;;;;;;;3.17;2.50;;;19.20;70.00;;;;;;4899144;29;20043;-79
2023/08/06 02:30:19;;;;;;;3.63;2.50;;;19.10;70.00;;;;;;4897788;29;20371;-77
2023/08/06 02:32:45;;;;;;;3.15;2.50;;;19.10;69.90;;;;;;4898604;29;20036;-78
2023/08/06 02:35:10;;;;;;;3.42;2.45;;;19.10;70.00;;;;;;4913243;29;20032;-78
2023/08/06 02:37:37;;;;;;;3.60;2.58;;;19.10;70.00;;;;;;4881996;29;20546;-78
2023/08/06 02:40:03;;;;;;;4.00;2.75;;;19.10;70.00;;;;;;4912845;29;20125;-78
2023/08/06 02:42:29;;;;;;;3.55;2.65;;;19.10;70.00;;;;;;4898080;29;20112;-78
2023/08/06 02:44:55;;;;;;;3.80;2.92;;;19.10;70.00;;;;;;4882283;29;20089;-78
2023/08/06 02:47:21;;;;;;;3.55;2.70;;;19.10;70.00;;;;;;4897528;29;20036;-80
2023/08/06 02:49:47;;;;;;;3.60;2.60;;;19.10;70.00;;;;;;4897389;29;20028;-79
2023/08/06 02:52:12;;;;;;;3.47;2.70;;;19.00;70.00;;;;;;4897485;29;20090;-79
2023/08/06 02:54:38;;;;;;;3.30;2.65;;;19.10;70.10;;;;;;4912952;29;20535;-79
2023/08/06 02:57:05;;;;;;;3.17;2.45;;;19.00;70.10;;;;;;4897528;29;20546;-79
2023/08/06 02:59:33;;;;;;;3.83;2.60;;;19.00;70.10;;;;;;4897584;29;20032;-79
2023/08/06 03:02:06;;;;;;;3.25;2.60;;;19.10;70.20;;;;;;4882910;29;20413;-79
2023/08/06 03:04:42;;;;;;;3.47;2.70;;;19.00;70.10;;;;;;4897578;29;20068;-78
2023/08/06 03:07:09;;;;;;;3.30;2.65;;;19.00;70.10;;;;;;4897197;29;20097;-79
2023/08/06 03:09:44;;;;;;;3.33;2.70;;;19.00;70.10;;;;;;4897572;29;20040;-79
2023/08/06 03:12:09;;;;;;;4.15;2.80;;;19.00;70.00;;;;;;4881906;29;20037;-80
2023/08/06 03:14:37;;;;;;;3.85;2.60;;;19.00;70.10;;;;;;4881916;29;20048;-79
2023/08/06 03:17:05;;;;;;;3.40;2.58;;;19.00;70.10;;;;;;4897391;29;20390;-80
2023/08/06 03:19:31;;;;;;;4.78;2.95;;;19.00;70.10;;;;;;4898184;29;20033;-80
2023/08/06 03:21:57;;;;;;;3.63;2.72;;;19.00;70.10;;;;;;4896853;29;20032;-80
2023/08/06 03:24:25;;;;;;;3.80;2.78;;;19.00;70.10;;;;;;4913027;29;20455;-80
2023/08/06 03:26:51;;;;;;;3.33;2.53;;;19.00;70.10;;;;;;4896994;29;20044;-80
2023/08/06 03:29:17;;;;;;;3.78;3.05;;;19.00;70.10;;;;;;4912670;29;20032;-79
2023/08/06 03:31:44;;;;;;;3.83;2.90;;;19.00;70.20;;;;;;4881630;29;20172;-80
2023/08/06 03:34:12;;;;;;;3.72;2.63;;;19.00;70.20;;;;;;4912211;29;20069;-79
2023/08/06 03:36:40;;;;;;;3.35;2.40;;;19.00;70.80;;;;;;4897724;29;20558;-80
2023/08/06 03:39:06;;;;;;;3.60;2.83;;;19.00;70.20;;;;;;4881647;29;20130;-79
2023/08/06 03:41:32;;;;;;;3.38;2.83;;;19.00;70.20;;;;;;4912775;29;20041;-80
2023/08/06 03:43:58;;;;;;;4.20;2.78;;;19.00;70.20;;;;;;4897645;29;20370;-79
2023/08/06 03:46:26;;;;;;;3.65;2.65;;;18.90;70.20;;;;;;4896854;29;20028;-79
2023/08/06 03:48:52;;;;;;;4.00;2.78;;;19.00;70.30;;;;;;4882360;29;20392;-80
2023/08/06 03:51:19;;;;;;;4.05;2.97;;;18.90;70.20;;;;;;4897002;29;20119;-81
2023/08/06 03:53:46;;;;;;;4.00;3.00;;;18.90;70.20;;;;;;4897140;29;20037;-80
2023/08/06 03:56:12;;;;;;;3.90;2.90;;;18.90;70.20;;;;;;4881401;29;20147;-80
2023/08/06 03:58:39;;;;;;;3.55;2.75;;;18.90;70.30;;;;;;4881141;29;20036;-81
2023/08/06 04:01:04;;;;;;;3.75;2.63;;;18.90;70.30;;;;;;4896880;29;20044;-80
2023/08/06 04:03:36;;;;;;;3.60;2.75;;;18.90;70.30;;;;;;4897548;29;20123;-80
2023/08/06 04:06:03;;;;;;;4.65;3.08;;;18.90;70.30;;;;;;4896803;29;20180;-81
2023/08/06 04:08:29;;;;;;;3.00;2.55;;;18.90;70.30;;;;;;4896739;29;20040;-80
2023/08/06 04:10:54;;;;;;;5.32;3.45;;;18.90;70.30;;;;;;4881182;29;20041;-80
2023/08/06 04:13:20;;;;;;;3.78;2.90;;;18.90;70.30;;;;;;4896712;29;20041;-79
2023/08/06 04:15:47;;;;;;;3.90;2.80;;;18.90;70.30;;;;;;4896873;29;20037;-80
2023/08/06 04:18:13;;;;;;;3.83;2.90;;;18.90;70.30;;;;;;4896778;29;20028;-80
2023/08/06 04:20:46;;;;;;;3.70;2.80;;;18.90;70.30;;;;;;4899670;29;20053;-80
2023/08/06 04:23:12;;;;;;;4.82;2.88;;;18.90;70.40;;;;;;4901182;29;20032;-80
2023/08/06 04:25:39;;;;;;;3.78;2.85;;;18.90;70.40;;;;;;4884795;29;20056;-80
2023/08/06 04:28:05;;;;;;;4.65;3.08;;;18.90;70.40;;;;;;4884506;29;20095;-80
2023/08/06 04:30:31;;;;;;;4.00;2.97;;;18.90;70.30;;;;;;4900926;29;20036;-80
2023/08/06 04:32:58;;;;;;;3.55;2.83;;;18.90;70.40;;;;;;4900036;29;20478;-80
2023/08/06 04:35:24;;;;;;;4.25;3.05;;;18.90;70.40;;;;;;4899869;29;20038;-79
2023/08/06 04:37:51;;;;;;;4.03;2.95;;;18.90;70.40;;;;;;4916243;29;20107;-78
2023/08/06 04:40:16;;;;;;;3.67;2.97;;;18.90;70.40;;;;;;4899711;29;20033;-80
2023/08/06 04:42:43;;;;;;;4.35;3.40;;;18.90;70.40;;;;;;4899665;29;20056;-81
2023/08/06 04:45:09;;;;;;;3.78;2.78;;;18.90;70.40;;;;;;4900116;29;20509;-81
2023/08/06 04:47:35;;;;;;;3.50;2.80;;;18.90;70.40;;;;;;4899509;29;20092;-81
2023/08/06 04:50:01;;;;;;;3.70;2.55;;;18.90;70.40;;;;;;4900358;29;20414;-80
2023/08/06 04:52:28;;;;;;;3.72;2.83;;;18.90;70.40;;;;;;4899794;29;20045;-81
2023/08/06 04:54:54;;;;;;;4.28;3.22;;;18.90;70.40;;;;;;4899390;29;20043;-81
2023/08/06 04:57:20;;;;;;;3.53;2.75;;;18.90;70.40;;;;;;4915880;29;20037;-81
2023/08/06 04:59:46;;;;;;;3.05;2.53;;;18.90;70.40;;;;;;4915132;29;20029;-78
2023/08/06 05:02:12;;;;;;;3.70;2.75;;;18.90;70.40;;;;;;4915069;29;20040;-81
2023/08/06 05:04:39;;;;;;;4.07;2.75;;;18.90;70.40;;;;;;4907850;29;20066;-81
2023/08/06 05:07:06;;;;;;;3.72;2.75;;;18.90;70.40;;;;;;4901718;29;20044;-82
2023/08/06 05:09:32;;;;;;;4.22;2.92;;;18.90;70.40;;;;;;4901023;29;20500;-77
2023/08/06 05:11:57;;;;;;;3.60;2.83;;;18.90;70.40;;;;;;4906290;29;20092;-80
2023/08/06 05:14:23;;;;;;;3.13;2.65;;;18.90;70.40;;;;;;4910642;29;20040;-80
2023/08/06 05:16:49;;;;;;;3.75;2.85;;;18.80;70.40;;;;;;4887196;29;20499;-80
2023/08/06 05:19:14;;;;;;;4.63;3.03;;;18.90;70.50;;;;;;4883989;29;20033;-78
2023/08/06 05:21:40;;;;;;;3.13;2.67;;;18.90;70.50;;;;;;4883127;29;20057;-78
2023/08/06 05:24:06;;;;;;;3.80;3.00;;;18.90;70.50;;;;;;4898920;29;20482;-80
2023/08/06 05:26:32;;;;;;;4.47;2.97;;;18.90;70.50;;;;;;4915364;29;20131;-80
2023/08/06 05:28:57;;;;;;;4.53;3.10;;;18.90;70.50;;;;;;4898891;29;20558;-79
2023/08/06 05:31:23;;;;;;;3.40;2.63;;;18.90;70.50;;;;;;4898856;29;20072;-79
2023/08/06 05:33:49;;;;;;;3.92;3.03;;;18.90;70.60;;;;;;4899174;29;20489;-79
2023/08/06 05:36:15;;;;;;;3.60;2.65;;;18.90;70.60;;;;;;4898562;29;20025;-79
2023/08/06 05:38:40;;;;;;;3.80;2.95;;;18.90;70.60;;;;;;4900775;29;20437;-79
2023/08/06 05:41:06;;;;;;;3.70;2.97;;;18.90;70.60;;;;;;4898753;29;20052;-78
2023/08/06 05:43:32;;;;;;;3.90;2.83;;;18.90;70.60;;;;;;4900073;29;20100;-79
2023/08/06 05:45:58;;;;;;;4.20;3.13;;;18.90;70.60;;;;;;4899493;29;20060;-79
2023/08/06 05:48:24;;;;;;;3.70;2.88;;;18.90;70.60;;;;;;4883239;29;20032;-78
2023/08/06 05:50:52;;;;;;;4.30;3.17;;;18.90;70.60;;;;;;4898492;29;20036;-79
2023/08/06 05:53:17;;;;;;;4.15;2.95;;;18.90;70.70;;;;;;4898593;29;20165;-78
2023/08/06 05:55:43;;;;;;;3.35;2.80;;;18.90;70.70;;;;;;4914421;29;20492;-79
2023/08/06 05:58:09;;;;;;;4.13;2.75;;;18.90;70.70;;;;;;4898218;29;20382;-79
2023/08/06 06:00:35;;;;;;;3.58;2.80;;;18.90;70.70;;;;;;4898218;29;20128;-79
2023/08/06 06:03:01;;;;;;;4.28;3.28;;;18.90;70.70;;;;;;4899722;29;20355;-78
2023/08/06 06:05:27;;;;;;;3.88;2.85;;;18.90;70.70;;;;;;4898462;29;20115;-78
2023/08/06 06:07:53;;;;;;;3.55;2.70;;;18.90;70.70;;;;;;4882859;29;20157;-79
2023/08/06 06:10:19;;;;;;;4.13;3.08;;;18.90;70.70;;;;;;4899293;29;20069;-79
2023/08/06 06:12:45;;;;;;;4.03;2.90;;;19.00;70.80;;;;;;4882607;29;20041;-79
2023/08/06 06:15:10;;;;;;;3.33;2.78;;;19.00;70.70;;;;;;4898081;29;20040;-78
2023/08/06 06:17:36;;;;;;;4.60;3.42;;;19.00;70.70;;;;;;4913468;29;20141;-80
2023/08/06 06:20:04;;;;;;;3.72;2.95;;;19.00;70.70;;;;;;4897701;29;20048;-78
2023/08/06 06:22:30;;;;;;;3.63;2.90;;;19.00;70.70;;;;;;4898551;29;20175;-80
2023/08/06 06:24:56;;;;;;;4.53;3.58;;;19.00;70.70;;;;;;4898099;29;20041;-80
2023/08/06 06:27:21;;;;;;;4.00;2.97;;;19.00;70.70;;;;;;4898721;29;20036;-79
2023/08/06 06:29:47;;;;;;;4.43;3.22;;;19.00;70.70;;;;;;4897771;29;20033;-79
2023/08/06 06:32:13;;;;;;;4.50;3.63;;;19.00;70.70;;;;;;4898209;29;20430;-80
2023/08/06 06:34:39;;;;;;;4.50;3.55;;;19.00;70.90;;;;;;4913052;29;20033;-80
2023/08/06 06:37:05;;;;;;;4.90;3.78;;;19.00;70.30;;;;;;4897517;29;20116;-81
2023/08/06 06:39:31;;;;;;;4.70;3.75;;;19.10;70.70;;;;;;4897774;29;20517;-80
2023/08/06 06:41:57;;;;;;;4.20;3.20;;;19.10;70.70;;;;;;4897431;29;20115;-81
2023/08/06 06:44:30;;;;;;;4.50;3.50;;;19.10;70.70;;;;;;4898445;29;20093;-80
2023/08/06 06:46:56;;;;;;;5.10;3.78;;;19.10;70.70;;;;;;4897283;29;20478;-79
2023/08/06 06:49:22;;;;;;;4.65;3.30;;;19.10;70.70;;;;;;4897898;29;20032;-79
2023/08/06 06:51:48;;;;;;;4.35;3.47;;;19.10;70.70;;;;;;4898288;29;20036;-79
2023/08/06 06:54:13;;;;;;;4.93;3.95;;;19.10;70.70;;;;;;4897579;29;20036;-81
2023/08/06 06:56:39;;;;;;;5.07;3.72;;;19.10;70.80;;;;;;4897474;29;20402;-80
2023/08/06 06:59:05;;;;;;;5.00;4.00;;;19.20;70.80;;;;;;4882660;29;20434;-81
2023/08/06 07:01:31;;;;;;;4.65;3.60;;;19.10;70.70;;;;;;4898030;29;20041;-81
2023/08/06 07:03:57;;;;;;;4.47;3.33;;;19.10;70.70;;;;;;4897032;29;20123;-80
2023/08/06 07:06:22;;;;;;;4.85;3.83;;;19.10;70.80;;;;;;4897190;29;20193;-79
2023/08/06 07:08:48;;;;;;;5.50;4.07;;;19.10;70.80;;;;;;4897276;29;20080;-79
2023/08/06 07:11:14;;;;;;;5.40;4.13;;;19.10;70.80;;;;;;4897012;29;20537;-80
2023/08/06 07:13:40;;;;;;;5.22;4.22;;;19.10;70.80;;;;;;4897198;29;20065;-80
2023/08/06 07:16:05;;;;;;;5.53;3.97;;;19.20;70.90;;;;;;4897434;29;20035;-81
2023/08/06 07:18:31;;;;;;;4.82;3.90;;;19.10;70.80;;;;;;4897029;29;20071;-79
2023/08/06 07:20:57;;;;;;;5.50;4.35;;;19.20;70.80;;;;;;4881320;29;20056;-80
2023/08/06 07:23:25;;;;;;;6.00;4.13;;;19.20;70.90;;;;;;4897115;29;20119;-79
2023/08/06 07:25:51;;;;;;;4.82;3.88;;;19.20;70.80;;;;;;4881871;29;20093;-80
2023/08/06 07:28:17;;;;;;;4.68;3.92;;;19.20;70.80;;;;;;4881503;29;20033;-79
2023/08/06 07:30:44;;;;;;;5.97;4.30;;;19.20;70.80;;;;;;4898606;29;20466;-79
2023/08/06 07:33:10;;;;;;;4.95;3.92;;;19.20;70.80;;;;;;4896811;29;20028;-79
2023/08/06 07:35:37;;;;;;;5.40;4.18;;;19.20;70.80;;;;;;4896983;29;20037;-79
2023/08/06 07:38:03;;;;;;;5.95;4.78;;;19.30;70.90;;;;;;4865980;29;20124;-80
2023/08/06 07:40:29;;;;;;;5.90;4.75;;;19.20;70.90;;;;;;4896904;29;20465;-80
2023/08/06 07:42:55;;;;;;;5.90;4.78;;;19.30;70.90;;;;;;4898117;29;20489;-79
2023/08/06 07:45:21;;;;;;;5.30;4.55;;;19.30;70.90;;;;;;4912851;29;20112;-80
2023/08/06 07:47:47;;;;;;;5.63;4.70;;;19.30;70.90;;;;;;4897057;29;20060;-80
2023/08/06 07:50:13;;;;;;;6.00;4.40;;;19.30;71.00;;;;;;4896891;29;20029;-78
2023/08/06 07:52:39;;;;;;;5.57;4.30;;;19.30;71.00;;;;;;4897891;29;20044;-79
2023/08/06 07:55:06;;;;;;;5.57;4.60;;;19.30;71.00;;;;;;4899802;29;20033;-80
2023/08/06 07:57:33;;;;;;;4.75;4.10;;;19.30;71.00;;;;;;4885694;29;20108;-80
2023/08/06 07:59:59;;;;;;;6.15;4.82;;;19.30;71.00;;;;;;4884598;29;20033;-81
2023/08/06 08:02:25;;;;;;;6.13;5.00;;;19.30;71.00;;;;;;4901460;29;20041;-77
2023/08/06 08:04:51;;;;;;;5.43;4.30;;;19.40;71.00;;;;;;4901189;29;20031;-79
2023/08/06 08:07:16;;;;;;;5.75;4.63;;;19.30;71.00;;;;;;4900599;29;20033;-80
2023/08/06 08:09:42;;;;;;;4.85;4.07;;;19.30;71.00;;;;;;4885213;29;20455;-79
2023/08/06 08:12:08;;;;;;;5.82;5.03;;;19.30;71.00;;;;;;4916196;29;20040;-80
2023/08/06 08:14:35;;;;;;;5.93;4.50;;;19.30;71.00;;;;;;4900159;29;20040;-80
2023/08/06 08:17:05;;;;;;;5.57;4.45;;;19.40;71.00;;;;;;4900109;29;20084;-78
2023/08/06 08:19:32;;;;;;;6.00;4.30;;;19.40;71.00;;;;;;4899885;29;20039;-80
2023/08/06 08:21:58;;;;;;;5.50;4.55;;;19.40;71.00;;;;;;4899745;29;20053;-79
2023/08/06 08:24:24;;;;;;;5.30;4.45;;;19.40;71.00;;;;;;4884713;29;20433;-78
2023/08/06 08:26:51;;;;;;;5.30;4.38;;;19.40;71.20;;;;;;4900306;29;20040;-77
2023/08/06 08:29:17;;;;;;;5.30;4.55;;;19.40;71.00;;;;;;4885206;29;20029;-79
2023/08/06 08:31:43;;;;;;;5.43;4.15;;;19.40;71.00;;;;;;4899824;29;20188;-78
2023/08/06 08:34:09;;;;;;;5.35;4.05;;;19.40;71.00;;;;;;4899518;29;20032;-80
2023/08/06 08:36:35;;;;;;;5.03;4.28;;;19.40;71.00;;;;;;4915816;29;20083;-79
2023/08/06 08:39:00;;;;;;;5.53;4.28;;;19.50;71.00;;;;;;4915752;29;20462;-80
2023/08/06 08:41:31;;;;;;;5.20;4.20;;;19.50;71.00;;;;;;4899568;29;20037;-79
2023/08/06 08:43:59;;;;;;;4.57;3.90;;;19.50;71.00;;;;;;4900783;29;20112;-80
2023/08/06 08:46:27;;;;;;;5.43;4.07;;;19.50;71.00;;;;;;4899935;29;20100;-81
2023/08/06 08:48:54;;;;;;;4.45;3.72;;;19.60;71.00;;;;;;4899705;29;20043;-81
2023/08/06 08:51:20;;;;;;;4.90;3.80;;;19.60;71.00;;;;;;4899462;29;20127;-80
2023/08/06 08:53:48;;;;;;;5.00;3.80;;;19.60;70.90;;;;;;4883800;29;20059;-80
2023/08/06 08:56:14;;;;;;;5.10;4.10;;;19.60;70.90;;;;;;4899430;29;20470;-80
2023/08/06 08:58:40;;;;;;;4.63;3.67;;;19.70;70.90;;;;;;4915212;29;20096;-78
2023/08/06 09:01:08;;;;;;;5.18;3.80;;;19.70;70.90;;;;;;4868416;29;20033;-79
2023/08/06 09:03:36;;;;;;;4.93;4.13;;;19.70;70.90;;;;;;4898879;29;20498;-80
2023/08/06 09:06:02;;;;;;;4.90;3.88;;;19.70;70.80;;;;;;4900388;29;20189;-80
2023/08/06 09:08:36;;;;;;;4.07;3.35;;;19.70;70.80;;;;;;4899307;29;20079;-80
2023/08/06 09:11:04;;;;;;;4.35;3.55;;;19.80;70.80;;;;;;4901019;29;20111;-80
2023/08/06 09:13:30;;;;;;;4.10;3.33;;;19.80;70.80;;;;;;4900768;29;20115;-80
2023/08/06 09:15:55;;;;;;;4.38;3.33;;;19.80;70.70;;;;;;4914852;29;20116;-79
2023/08/06 09:18:30;;;;;;;4.28;3.55;;;19.90;70.70;;;;;;4898885;29;20056;-80
2023/08/06 09:20:56;;;;;;;4.45;3.40;;;19.90;70.70;;;;;;4898641;29;20053;-80
2023/08/06 09:23:30;;;;;;;4.68;3.88;;;19.90;70.60;;;;;;4899692;29;20048;-82
2023/08/06 09:25:57;;;;;;;3.90;3.40;;;19.90;70.60;;;;;;4899238;29;20048;-80
2023/08/06 09:28:24;;;;;;;3.92;3.28;;;19.90;70.60;;;;;;4883338;29;20032;-80
2023/08/06 09:30:50;;;;;;;4.25;3.38;;;20.00;70.50;;;;;;4883555;29;20115;-81
2023/08/06 09:33:19;;;;;;;4.72;3.65;;;20.00;70.50;;;;;;4885144;29;20558;-80
2023/08/06 09:35:46;;;;;;;4.30;3.30;;;20.00;70.50;;;;;;4900388;29;20475;-80
2023/08/06 09:38:12;;;;;;;4.43;3.78;;;20.00;70.50;;;;;;4899053;29;20033;-80
2023/08/06 09:40:40;;;;;;;3.60;3.03;;;20.00;70.50;;;;;;4898839;29;20039;-78
2023/08/06 09:43:06;;;;;;;4.18;3.30;;;20.10;70.50;;;;;;4898920;29;20228;-80
2023/08/06 09:45:37;;;;;;;4.38;3.28;;;20.10;70.40;;;;;;4898712;29;20052;-79
2023/08/06 09:48:05;;;;;;;4.35;3.50;;;20.10;70.40;;;;;;4898771;29;20032;-81
2023/08/06 09:50:32;;;;;;;3.78;3.03;;;20.20;70.40;;;;;;4898139;29;20041;-80
2023/08/06 09:52:59;;;;;;;4.78;3.83;;;20.20;70.30;;;;;;4898596;29;20040;-79
2023/08/06 09:55:26;;;;;;;3.97;3.35;;;20.30;70.20;;;;;;4898490;29;20043;-82
2023/08/06 09:57:53;;;;;;;3.47;2.95;;;20.30;70.20;;;;;;4898298;29;20036;-81
2023/08/06 10:00:19;;;;;;;3.88;3.08;;;20.30;70.10;;;;;;4914251;29;20044;-80
2023/08/06 10:02:46;;;;;;;3.90;3.40;;;20.40;70.10;;;;;;4898373;29;20076;-79
2023/08/06 10:05:12;;;;;;;4.00;3.25;;;20.40;70.10;;;;;;4898138;29;20037;-80
2023/08/06 10:07:39;;;;;;;4.10;3.17;;;20.40;70.00;;;;;;4898053;29;20093;-80
2023/08/06 10:10:06;;;;;;;3.83;3.00;;;20.40;70.00;;;;;;4898898;29;20060;-81
2023/08/06 10:12:47;;;;;;;4.03;3.08;;;20.40;70.00;;;;;;4914046;29;20111;-81
2023/08/06 10:15:17;;;;;;;3.03;2.58;;;20.40;70.00;;;;;;4897864;29;20101;-80
2023/08/06 10:17:45;;;;;;;4.22;3.33;;;20.40;70.00;;;;;;4897401;29;20462;-82
2023/08/06 10:20:12;;;;;;;3.03;2.58;;;20.40;70.00;;;;;;4897709;29;20128;-82
2023/08/06 10:22:44;;;;;;;3.70;2.92;;;20.40;70.00;;;;;;4897749;29;20500;-80
2023/08/06 10:25:09;;;;;;;3.30;2.58;;;20.40;70.10;;;;;;4897897;29;20041;-80
2023/08/06 10:27:59;;;;;;;2.97;2.50;;;20.40;70.10;;;;;;4882891;29;20040;-79
2023/08/06 10:30:31;;;;;;;3.22;2.45;;;20.40;70.20;;;;;;4899729;29;20024;-82
2023/08/06 10:33:02;;;;;;;3.33;2.58;;;20.40;70.80;;;;;;4898057;29;20040;-79
2023/08/06 10:35:49;;;;;;;3.53;2.40;;;20.40;70.20;;;;;;4914006;29;20407;-81
2023/08/06 10:38:17;;;;;;;2.80;2.25;;;20.40;70.30;;;;;;4882751;29;20156;-82
2023/08/06 10:40:55;;;;;;;3.38;2.33;;;20.40;70.20;;;;;;4897678;29;20059;-80
2023/08/06 10:43:29;;;;;;;2.45;2.08;;;20.40;70.30;;;;;;4899464;29;20112;-80
2023/08/06 10:45:55;;;;;;;2.03;1.80;;;20.40;70.30;;;;;;4897828;29;20037;-81
2023/08/06 10:48:41;;;;;;;2.17;1.75;;;20.40;70.30;;;;;;4897525;29;20032;-81
2023/08/06 10:51:12;;;;;;;2.03;1.83;;;20.30;70.30;;;;;;4897497;29;20029;-80
2023/08/06 10:53:41;;;;;;;1.98;1.77;;;20.30;70.20;;;;;;4897219;29;20028;-80
2023/08/06 10:56:18;;;;;;;1.77;1.67;;;20.30;70.20;;;;;;4897391;29;20031;-80
2023/08/06 10:58:47;;;;;;;1.98;1.75;;;20.30;70.20;;;;;;4913313;29;20084;-80
2023/08/06 11:01:14;;;;;;;1.98;1.70;;;20.30;70.20;;;;;;4898571;29;20036;-80
2023/08/06 11:03:42;;;;;;;2.38;1.80;;;20.30;70.20;;;;;;4897486;29;20530;-80
2023/08/06 11:06:09;;;;;;;1.50;1.40;;;20.30;70.20;;;;;;4898270;29;20029;-80
2023/08/06 11:08:36;;;;;;;1.48;1.38;;;20.20;70.20;;;;;;4897606;29;20033;-81
2023/08/06 11:11:11;;;;;;;1.55;1.33;;;20.20;70.20;;;;;;4913789;29;20033;-80
2023/08/06 11:13:38;;;;;;;1.25;1.15;;;20.20;70.20;;;;;;4898251;29;20020;-80
2023/08/06 11:16:05;;;;;;;1.52;1.42;;;20.20;70.20;;;;;;4897406;29;20048;-80
2023/08/06 11:18:32;;;;;;;1.33;1.23;;;20.20;70.20;;;;;;4912588;29;20036;-80
2023/08/06 11:21:02;;;;;;;1.45;1.35;;;20.10;70.10;;;;;;4881637;29;20057;-81
2023/08/06 11:23:28;;;;;;;1.33;1.20;;;20.10;70.10;;;;;;4897884;29;20386;-81
2023/08/06 11:25:55;;;;;;;1.33;1.20;;;20.10;70.10;;;;;;4897990;29;20039;-81
2023/08/06 11:28:21;;;;;;;1.23;1.13;;;20.10;70.20;;;;;;4881815;29;20032;-80
2023/08/06 11:30:48;;;;;;;1.10;1.05;;;20.10;70.10;;;;;;4901554;29;20040;-80
2023/08/06 11:33:14;;;;;;;1.60;1.30;;;20.00;70.10;;;;;;4901276;29;20052;-81
2023/08/06 11:35:40;;;;;;;1.15;1.05;;;20.00;70.10;;;;;;4900724;29;20028;-78
2023/08/06 11:38:06;;;;;;;1.30;1.20;;;20.00;70.10;;;;;;4900951;29;20482;-79
2023/08/06 11:40:35;;;;;;;1.23;1.13;;;20.00;70.10;;;;;;4901269;29;20099;-80
2023/08/06 11:43:01;;;;;;;1.52;1.35;;;20.00;70.10;;;;;;4885031;29;20069;-79
2023/08/06 11:45:26;;;;;;;1.55;1.23;;;20.00;70.10;;;;;;4885265;29;20041;-78
2023/08/06 11:47:55;;;;;;;1.23;1.13;;;20.00;70.10;;;;;;4902691;29;20123;-78
2023/08/06 11:50:27;;;;;;;1.05;0.95;;;20.00;70.20;;;;;;4901708;29;20386;-79
2023/08/06 11:52:56;;;;;;;1.60;1.10;;;20.00;70.20;;;;;;4899048;29;20096;-78
2023/08/06 11:55:24;;;;;;;1.30;1.17;;;19.90;70.20;;;;;;4900407;29;20036;-81
2023/08/06 11:57:51;;;;;;;1.15;1.10;;;20.00;70.40;;;;;;4900511;29;20036;-79
2023/08/06 12:00:22;;;;;;;1.30;1.20;;;19.90;70.30;;;;;;4899889;29;20033;-80
2023/08/06 12:02:50;;;;;;;1.38;1.27;;;19.90;70.30;;;;;;4900729;29;20095;-80
2023/08/06 12:05:20;;;;;;;1.42;1.33;;;19.90;70.40;;;;;;4899745;29;20040;-81
2023/08/06 12:07:50;;;;;;;1.60;1.40;;;19.90;70.40;;;;;;4900270;29;20068;-80
2023/08/06 12:10:17;;;;;;;1.40;1.30;;;19.90;70.40;;;;;;4899819;29;20067;-82
2023/08/06 12:12:43;;;;;;;1.30;1.20;;;19.90;70.40;;;;;;4899666;29;20039;-80
2023/08/06 12:15:10;;;;;;;1.58;1.35;;;19.80;70.40;;;;;;4901570;29;20091;-81
2023/08/06 12:17:37;;;;;;;1.40;1.30;;;19.80;70.40;;;;;;4899911;29;20051;-82
2023/08/06 12:20:07;;;;;;;1.40;1.20;;;19.80;70.40;;;;;;4900150;29;20045;-81
2023/08/06 12:22:38;;;;;;;1.40;1.30;;;19.80;70.40;;;;;;4899800;29;20060;-80
2023/08/06 12:25:07;;;;;;;1.50;1.25;;;19.80;70.50;;;;;;4899978;29;20032;-81
2023/08/06 12:27:43;;;;;;;1.80;1.40;;;19.80;70.50;;;;;;4900010;29;20378;-81
2023/08/06 12:30:10;;;;;;;1.88;1.42;;;19.80;70.50;;;;;;4900842;29;20187;-84
2023/08/06 12:32:38;;;;;;;1.33;1.23;;;19.70;70.50;;;;;;4900095;29;20072;-81
2023/08/06 12:35:04;;;;;;;2.15;1.52;;;19.70;70.50;;;;;;4899750;29;20029;-78
2023/08/06 12:37:43;;;;;;;1.55;1.30;;;19.70;70.50;;;;;;4899234;29;20493;-82
2023/08/06 12:40:09;;;;;;;1.60;1.25;;;19.70;70.50;;;;;;4914975;29;20032;-79
2023/08/06 12:42:35;;;;;;;1.88;1.38;;;19.70;70.50;;;;;;4899860;29;20036;-82
2023/08/06 12:45:01;;;;;;;1.50;1.40;;;19.70;70.60;;;;;;4899563;29;20025;-78
2023/08/06 12:47:26;;;;;;;1.55;1.40;;;19.70;70.60;;;;;;4900053;29;20454;-78